LQSA/SJJ METAR and TAF weather

Enter ICAO airport designator
Station Type Date Time Source
LQSA METAR 2019/12/07 00:00 UTC NOAA

LQSA 070000Z 00000KT 1000 R11/1200N BR SCT055 M01/M01 Q1020


Station Type Date Time Source
LQSA Decoded METAR 2019/12/07 00:00 UTC NOAA

Sarajevo, Bosnia and Herzegovina (LQSA) 43-49N 018-20E 510M
Dec 06, 2019 - 07:00 PM EST / 2019.12.07 0000 UTC
Wind: Calm:0
Visibility: less than 1 mile:0
Sky conditions: partly cloudy
Weather: mist
Temperature: 30 F (-1 C)
Dew Point: 30 F (-1 C)
Relative Humidity: 100%
Pressure (altimeter): 30.12 in. Hg (1020 hPa)
ob: LQSA 070000Z 00000KT 1000 R11/1200N BR SCT055 M01/M01 Q1020
cycle: 0

Station Type Date Time Source
LQSA TAF 2019/12/06 18:06 UTC NOAA

TAF TAF COR LQSA 061700Z 0618/0718 VRB02KT 2000 BR SCT006 BKN045 TX07/0713Z TNM03/0704Z
TEMPO 0623/0709 4000 RA BKN015 BKN030 PROB30
TEMPO 0703/0706 FZRA
BECMG 0709/0711 6000 NSW

Example: see airport list